sensor_id;sensor_type;location;lat;lon;timestamp;P1;durP1;ratioP1;P2;durP2;ratioP2
9948;SDS011;5013;51.840;8.276;2023-09-12T00:00:47;7.53;;;4.63;;
9948;SDS011;5013;51.840;8.276;2023-09-12T00:03:13;6.13;;;4.30;;
9948;SDS011;5013;51.840;8.276;2023-09-12T00:05:39;8.80;;;5.53;;
9948;SDS011;5013;51.840;8.276;2023-09-12T00:08:05;4.53;;;4.13;;
9948;SDS011;5013;51.840;8.276;2023-09-12T00:10:31;5.67;;;4.97;;
9948;SDS011;5013;51.840;8.276;2023-09-12T00:12:57;5.00;;;4.50;;
9948;SDS011;5013;51.840;8.276;2023-09-12T00:15:27;5.43;;;4.27;;
9948;SDS011;5013;51.840;8.276;2023-09-12T00:17:53;6.77;;;4.10;;
9948;SDS011;5013;51.840;8.276;2023-09-12T00:20:18;6.03;;;4.63;;
9948;SDS011;5013;51.840;8.276;2023-09-12T00:22:44;4.83;;;4.40;;
9948;SDS011;5013;51.840;8.276;2023-09-12T00:25:09;5.33;;;4.90;;
9948;SDS011;5013;51.840;8.276;2023-09-12T00:27:35;5.07;;;4.50;;
9948;SDS011;5013;51.840;8.276;2023-09-12T00:30:01;8.63;;;4.70;;
9948;SDS011;5013;51.840;8.276;2023-09-12T00:32:27;7.43;;;4.70;;
9948;SDS011;5013;51.840;8.276;2023-09-12T00:34:52;7.43;;;4.33;;
9948;SDS011;5013;51.840;8.276;2023-09-12T00:37:18;4.80;;;4.50;;
9948;SDS011;5013;51.840;8.276;2023-09-12T00:39:43;8.00;;;5.00;;
9948;SDS011;5013;51.840;8.276;2023-09-12T00:42:09;5.20;;;4.70;;
9948;SDS011;5013;51.840;8.276;2023-09-12T00:44:34;5.80;;;5.40;;
9948;SDS011;5013;51.840;8.276;2023-09-12T00:47:00;5.90;;;5.17;;
9948;SDS011;5013;51.840;8.276;2023-09-12T00:49:27;10.93;;;5.47;;
9948;SDS011;5013;51.840;8.276;2023-09-12T00:51:54;10.07;;;5.33;;
9948;SDS011;5013;51.840;8.276;2023-09-12T00:54:21;5.43;;;4.97;;
9948;SDS011;5013;51.840;8.276;2023-09-12T00:56:47;5.77;;;5.27;;
9948;SDS011;5013;51.840;8.276;2023-09-12T00:59:13;5.57;;;5.00;;
9948;SDS011;5013;51.840;8.276;2023-09-12T01:01:40;6.30;;;5.80;;
9948;SDS011;5013;51.840;8.276;2023-09-12T01:04:06;6.07;;;5.57;;
9948;SDS011;5013;51.840;8.276;2023-09-12T01:06:32;8.60;;;5.47;;
9948;SDS011;5013;51.840;8.276;2023-09-12T01:08:59;7.10;;;6.50;;
9948;SDS011;5013;51.840;8.276;2023-09-12T01:11:25;6.60;;;6.20;;
9948;SDS011;5013;51.840;8.276;2023-09-12T01:13:52;7.77;;;7.17;;
9948;SDS011;5013;51.840;8.276;2023-09-12T01:16:17;7.63;;;6.77;;
9948;SDS011;5013;51.840;8.276;2023-09-12T01:18:43;8.53;;;7.23;;
9948;SDS011;5013;51.840;8.276;2023-09-12T01:28:49;8.10;;;7.50;;
9948;SDS011;5013;51.840;8.276;2023-09-12T01:31:16;8.47;;;7.63;;
9948;SDS011;5013;51.840;8.276;2023-09-12T01:33:42;7.97;;;7.20;;
9948;SDS011;5013;51.840;8.276;2023-09-12T01:36:09;8.57;;;7.77;;
9948;SDS011;5013;51.840;8.276;2023-09-12T01:38:35;10.43;;;7.27;;
9948;SDS011;5013;51.840;8.276;2023-09-12T01:41:01;9.73;;;8.50;;
9948;SDS011;5013;51.840;8.276;2023-09-12T01:43:27;8.43;;;7.70;;
9948;SDS011;5013;51.840;8.276;2023-09-12T01:45:54;9.20;;;8.30;;
9948;SDS011;5013;51.840;8.276;2023-09-12T01:48:23;8.83;;;7.83;;
9948;SDS011;5013;51.840;8.276;2023-09-12T01:50:51;10.80;;;9.30;;
9948;SDS011;5013;51.840;8.276;2023-09-12T01:53:19;9.43;;;8.63;;
9948;SDS011;5013;51.840;8.276;2023-09-12T01:55:45;9.57;;;8.67;;
9948;SDS011;5013;51.840;8.276;2023-09-12T01:58:12;10.80;;;9.67;;
9948;SDS011;5013;51.840;8.276;2023-09-12T02:00:39;10.97;;;9.97;;
9948;SDS011;5013;51.840;8.276;2023-09-12T02:03:05;11.20;;;10.30;;
9948;SDS011;5013;51.840;8.276;2023-09-12T02:05:31;11.37;;;10.10;;
9948;SDS011;5013;51.840;8.276;2023-09-12T02:07:57;11.33;;;10.30;;
9948;SDS011;5013;51.840;8.276;2023-09-12T02:10:25;12.97;;;11.07;;
9948;SDS011;5013;51.840;8.276;2023-09-12T02:12:50;14.30;;;12.17;;
9948;SDS011;5013;51.840;8.276;2023-09-12T02:15:16;14.50;;;13.00;;
9948;SDS011;5013;51.840;8.276;2023-09-12T02:17:42;14.70;;;12.10;;
9948;SDS011;5013;51.840;8.276;2023-09-12T02:20:08;16.70;;;14.00;;
9948;SDS011;5013;51.840;8.276;2023-09-12T02:22:34;16.33;;;14.47;;
9948;SDS011;5013;51.840;8.276;2023-09-12T02:25:03;17.87;;;14.40;;
9948;SDS011;5013;51.840;8.276;2023-09-12T02:27:29;18.80;;;16.33;;
9948;SDS011;5013;51.840;8.276;2023-09-12T02:29:55;16.50;;;14.80;;
9948;SDS011;5013;51.840;8.276;2023-09-12T02:32:21;17.03;;;15.33;;
9948;SDS011;5013;51.840;8.276;2023-09-12T02:34:46;19.50;;;16.13;;
9948;SDS011;5013;51.840;8.276;2023-09-12T02:37:12;23.10;;;15.50;;
9948;SDS011;5013;51.840;8.276;2023-09-12T02:39:37;17.93;;;16.03;;
9948;SDS011;5013;51.840;8.276;2023-09-12T02:42:03;22.50;;;16.17;;
9948;SDS011;5013;51.840;8.276;2023-09-12T02:44:29;17.63;;;15.73;;
9948;SDS011;5013;51.840;8.276;2023-09-12T02:46:54;17.03;;;14.80;;
9948;SDS011;5013;51.840;8.276;2023-09-12T02:49:20;14.53;;;12.93;;
9948;SDS011;5013;51.840;8.276;2023-09-12T02:51:45;16.07;;;12.87;;
9948;SDS011;5013;51.840;8.276;2023-09-12T02:54:11;15.60;;;12.60;;
9948;SDS011;5013;51.840;8.276;2023-09-12T02:56:37;12.17;;;10.90;;
9948;SDS011;5013;51.840;8.276;2023-09-12T02:59:02;14.00;;;10.73;;
9948;SDS011;5013;51.840;8.276;2023-09-12T03:01:28;12.23;;;10.17;;
9948;SDS011;5013;51.840;8.276;2023-09-12T03:03:54;10.37;;;9.37;;
9948;SDS011;5013;51.840;8.276;2023-09-12T03:06:20;12.63;;;10.80;;
9948;SDS011;5013;51.840;8.276;2023-09-12T03:08:46;11.70;;;10.17;;
9948;SDS011;5013;51.840;8.276;2023-09-12T03:11:12;11.00;;;9.90;;
9948;SDS011;5013;51.840;8.276;2023-09-12T03:13:38;12.03;;;10.67;;
9948;SDS011;5013;51.840;8.276;2023-09-12T03:16:05;16.43;;;11.00;;
9948;SDS011;5013;51.840;8.276;2023-09-12T03:18:38;13.07;;;11.60;;
9948;SDS011;5013;51.840;8.276;2023-09-12T03:21:04;12.80;;;11.30;;
9948;SDS011;5013;51.840;8.276;2023-09-12T03:23:30;13.10;;;11.10;;
9948;SDS011;5013;51.840;8.276;2023-09-12T03:25:59;14.70;;;10.73;;
9948;SDS011;5013;51.840;8.276;2023-09-12T03:28:28;12.83;;;11.00;;
9948;SDS011;5013;51.840;8.276;2023-09-12T03:31:02;18.73;;;12.30;;
9948;SDS011;5013;51.840;8.276;2023-09-12T03:33:32;16.97;;;12.73;;
9948;SDS011;5013;51.840;8.276;2023-09-12T03:35:58;19.07;;;13.57;;
9948;SDS011;5013;51.840;8.276;2023-09-12T03:38:23;15.80;;;13.17;;
9948;SDS011;5013;51.840;8.276;2023-09-12T03:40:49;15.97;;;12.77;;
9948;SDS011;5013;51.840;8.276;2023-09-12T03:43:14;14.00;;;12.43;;
9948;SDS011;5013;51.840;8.276;2023-09-12T03:45:40;14.10;;;11.93;;
9948;SDS011;5013;51.840;8.276;2023-09-12T03:48:05;11.63;;;10.47;;
9948;SDS011;5013;51.840;8.276;2023-09-12T03:50:31;14.00;;;10.97;;
9948;SDS011;5013;51.840;8.276;2023-09-12T03:52:57;13.30;;;11.87;;
9948;SDS011;5013;51.840;8.276;2023-09-12T03:55:22;12.50;;;10.53;;
9948;SDS011;5013;51.840;8.276;2023-09-12T03:57:48;12.20;;;9.77;;
9948;SDS011;5013;51.840;8.276;2023-09-12T04:00:14;12.63;;;9.73;;
9948;SDS011;5013;51.840;8.276;2023-09-12T04:02:40;11.83;;;10.70;;
9948;SDS011;5013;51.840;8.276;2023-09-12T04:05:05;14.43;;;9.70;;
9948;SDS011;5013;51.840;8.276;2023-09-12T04:07:31;12.20;;;10.90;;
9948;SDS011;5013;51.840;8.276;2023-09-12T04:09:57;14.97;;;10.20;;
9948;SDS011;5013;51.840;8.276;2023-09-12T04:12:22;11.47;;;10.23;;
9948;SDS011;5013;51.840;8.276;2023-09-12T04:14:52;12.37;;;10.43;;
9948;SDS011;5013;51.840;8.276;2023-09-12T04:17:18;11.87;;;10.47;;
9948;SDS011;5013;51.840;8.276;2023-09-12T04:19:43;10.23;;;9.23;;
9948;SDS011;5013;51.840;8.276;2023-09-12T04:22:09;13.13;;;9.40;;
9948;SDS011;5013;51.840;8.276;2023-09-12T04:24:34;9.63;;;8.80;;
9948;SDS011;5013;51.840;8.276;2023-09-12T04:27:00;13.77;;;8.40;;
9948;SDS011;5013;51.840;8.276;2023-09-12T04:29:25;11.00;;;9.50;;
9948;SDS011;5013;51.840;8.276;2023-09-12T04:31:52;11.03;;;8.57;;
9948;SDS011;5013;51.840;8.276;2023-09-12T04:34:23;9.13;;;7.90;;
9948;SDS011;5013;51.840;8.276;2023-09-12T04:36:49;9.77;;;8.70;;
9948;SDS011;5013;51.840;8.276;2023-09-12T04:39:15;10.87;;;8.20;;
9948;SDS011;5013;51.840;8.276;2023-09-12T04:41:40;9.03;;;7.37;;
9948;SDS011;5013;51.840;8.276;2023-09-12T04:44:06;9.73;;;7.77;;
9948;SDS011;5013;51.840;8.276;2023-09-12T04:46:31;13.10;;;8.80;;
9948;SDS011;5013;51.840;8.276;2023-09-12T04:48:57;13.13;;;6.93;;
9948;SDS011;5013;51.840;8.276;2023-09-12T04:51:23;9.20;;;7.10;;
9948;SDS011;5013;51.840;8.276;2023-09-12T04:53:48;11.53;;;7.00;;
9948;SDS011;5013;51.840;8.276;2023-09-12T04:56:16;17.90;;;8.27;;
9948;SDS011;5013;51.840;8.276;2023-09-12T04:58:42;16.90;;;9.03;;
9948;SDS011;5013;51.840;8.276;2023-09-12T05:01:08;25.70;;;10.13;;
9948;SDS011;5013;51.840;8.276;2023-09-12T05:03:34;12.50;;;7.67;;
9948;SDS011;5013;51.840;8.276;2023-09-12T05:06:00;14.23;;;8.20;;
9948;SDS011;5013;51.840;8.276;2023-09-12T05:08:25;12.40;;;8.43;;
9948;SDS011;5013;51.840;8.276;2023-09-12T05:10:51;19.40;;;9.50;;
9948;SDS011;5013;51.840;8.276;2023-09-12T05:13:17;17.83;;;8.73;;
9948;SDS011;5013;51.840;8.276;2023-09-12T05:15:43;20.73;;;10.63;;
9948;SDS011;5013;51.840;8.276;2023-09-12T05:18:09;17.13;;;9.83;;
9948;SDS011;5013;51.840;8.276;2023-09-12T05:20:35;54.20;;;13.77;;
9948;SDS011;5013;51.840;8.276;2023-09-12T05:23:01;23.20;;;11.67;;
9948;SDS011;5013;51.840;8.276;2023-09-12T05:25:27;23.57;;;11.30;;
9948;SDS011;5013;51.840;8.276;2023-09-12T05:27:53;23.87;;;12.83;;
9948;SDS011;5013;51.840;8.276;2023-09-12T05:30:19;25.37;;;11.97;;
9948;SDS011;5013;51.840;8.276;2023-09-12T05:32:45;15.50;;;8.87;;
9948;SDS011;5013;51.840;8.276;2023-09-12T05:35:10;11.70;;;8.53;;
9948;SDS011;5013;51.840;8.276;2023-09-12T05:37:36;11.70;;;8.53;;
9948;SDS011;5013;51.840;8.276;2023-09-12T05:40:02;21.53;;;10.17;;
9948;SDS011;5013;51.840;8.276;2023-09-12T05:42:28;20.77;;;10.67;;
9948;SDS011;5013;51.840;8.276;2023-09-12T05:44:54;17.07;;;9.23;;
9948;SDS011;5013;51.840;8.276;2023-09-12T05:47:20;21.57;;;9.77;;
9948;SDS011;5013;51.840;8.276;2023-09-12T05:49:45;13.10;;;9.07;;
9948;SDS011;5013;51.840;8.276;2023-09-12T05:52:11;15.67;;;8.83;;
9948;SDS011;5013;51.840;8.276;2023-09-12T05:54:37;14.80;;;9.30;;
9948;SDS011;5013;51.840;8.276;2023-09-12T05:57:03;20.00;;;9.83;;
9948;SDS011;5013;51.840;8.276;2023-09-12T05:59:29;18.53;;;10.47;;
9948;SDS011;5013;51.840;8.276;2023-09-12T06:01:55;17.73;;;11.60;;
9948;SDS011;5013;51.840;8.276;2023-09-12T06:04:23;14.57;;;9.70;;
9948;SDS011;5013;51.840;8.276;2023-09-12T06:06:49;27.53;;;11.20;;
9948;SDS011;5013;51.840;8.276;2023-09-12T06:09:14;28.77;;;13.97;;
9948;SDS011;5013;51.840;8.276;2023-09-12T06:11:40;15.40;;;10.47;;
9948;SDS011;5013;51.840;8.276;2023-09-12T06:14:06;13.87;;;9.83;;
9948;SDS011;5013;51.840;8.276;2023-09-12T06:16:31;18.90;;;11.20;;
9948;SDS011;5013;51.840;8.276;2023-09-12T06:18:57;16.37;;;10.83;;
9948;SDS011;5013;51.840;8.276;2023-09-12T06:21:22;14.53;;;11.53;;
9948;SDS011;5013;51.840;8.276;2023-09-12T06:23:52;19.17;;;11.67;;
9948;SDS011;5013;51.840;8.276;2023-09-12T06:26:37;20.63;;;12.20;;
9948;SDS011;5013;51.840;8.276;2023-09-12T06:29:03;19.33;;;12.57;;
9948;SDS011;5013;51.840;8.276;2023-09-12T06:31:29;14.37;;;11.03;;
9948;SDS011;5013;51.840;8.276;2023-09-12T06:33:55;24.20;;;12.57;;
9948;SDS011;5013;51.840;8.276;2023-09-12T06:36:20;15.97;;;13.77;;
9948;SDS011;5013;51.840;8.276;2023-09-12T06:38:46;25.07;;;15.77;;
9948;SDS011;5013;51.840;8.276;2023-09-12T06:41:12;16.87;;;13.13;;
9948;SDS011;5013;51.840;8.276;2023-09-12T06:43:38;22.17;;;14.27;;
9948;SDS011;5013;51.840;8.276;2023-09-12T06:46:03;20.40;;;12.87;;
9948;SDS011;5013;51.840;8.276;2023-09-12T06:48:29;17.13;;;12.97;;
9948;SDS011;5013;51.840;8.276;2023-09-12T06:50:55;19.73;;;14.70;;
9948;SDS011;5013;51.840;8.276;2023-09-12T06:53:20;18.83;;;13.20;;
9948;SDS011;5013;51.840;8.276;2023-09-12T06:55:46;25.10;;;14.97;;
9948;SDS011;5013;51.840;8.276;2023-09-12T06:58:11;26.90;;;15.80;;
9948;SDS011;5013;51.840;8.276;2023-09-12T07:00:37;19.03;;;14.70;;
9948;SDS011;5013;51.840;8.276;2023-09-12T07:03:03;19.93;;;14.50;;
9948;SDS011;5013;51.840;8.276;2023-09-12T07:05:29;20.20;;;15.10;;
9948;SDS011;5013;51.840;8.276;2023-09-12T07:07:54;18.13;;;14.57;;
9948;SDS011;5013;51.840;8.276;2023-09-12T07:10:20;14.57;;;12.67;;
9948;SDS011;5013;51.840;8.276;2023-09-12T07:12:46;15.77;;;13.10;;
9948;SDS011;5013;51.840;8.276;2023-09-12T07:15:11;14.53;;;13.03;;
9948;SDS011;5013;51.840;8.276;2023-09-12T07:17:37;16.20;;;12.80;;
9948;SDS011;5013;51.840;8.276;2023-09-12T07:20:03;11.63;;;10.33;;
9948;SDS011;5013;51.840;8.276;2023-09-12T07:22:29;13.63;;;10.87;;
9948;SDS011;5013;51.840;8.276;2023-09-12T07:24:55;11.43;;;10.30;;
9948;SDS011;5013;51.840;8.276;2023-09-12T07:27:24;13.53;;;10.87;;
9948;SDS011;5013;51.840;8.276;2023-09-12T07:29:49;13.57;;;11.13;;
9948;SDS011;5013;51.840;8.276;2023-09-12T07:32:15;10.83;;;9.60;;
9948;SDS011;5013;51.840;8.276;2023-09-12T07:34:41;10.70;;;9.67;;
9948;SDS011;5013;51.840;8.276;2023-09-12T07:37:10;10.30;;;9.13;;
9948;SDS011;5013;51.840;8.276;2023-09-12T07:39:36;12.97;;;10.50;;
9948;SDS011;5013;51.840;8.276;2023-09-12T07:42:01;12.27;;;10.73;;
9948;SDS011;5013;51.840;8.276;2023-09-12T07:44:28;12.57;;;11.23;;
9948;SDS011;5013;51.840;8.276;2023-09-12T07:46:54;10.90;;;9.80;;
9948;SDS011;5013;51.840;8.276;2023-09-12T07:49:19;10.13;;;9.03;;
9948;SDS011;5013;51.840;8.276;2023-09-12T07:51:45;7.77;;;6.90;;
9948;SDS011;5013;51.840;8.276;2023-09-12T07:54:10;8.50;;;7.33;;
9948;SDS011;5013;51.840;8.276;2023-09-12T07:56:36;12.93;;;9.83;;
9948;SDS011;5013;51.840;8.276;2023-09-12T07:59:01;16.90;;;7.63;;
9948;SDS011;5013;51.840;8.276;2023-09-12T08:01:28;13.73;;;8.27;;
9948;SDS011;5013;51.840;8.276;2023-09-12T08:03:53;10.80;;;7.20;;
9948;SDS011;5013;51.840;8.276;2023-09-12T08:06:19;6.37;;;4.93;;
9948;SDS011;5013;51.840;8.276;2023-09-12T08:08:45;22.33;;;5.53;;
9948;SDS011;5013;51.840;8.276;2023-09-12T08:11:10;13.43;;;5.70;;
9948;SDS011;5013;51.840;8.276;2023-09-12T08:13:36;18.87;;;6.43;;
9948;SDS011;5013;51.840;8.276;2023-09-12T08:16:01;6.53;;;5.90;;
9948;SDS011;5013;51.840;8.276;2023-09-12T08:18:29;8.80;;;5.60;;
9948;SDS011;5013;51.840;8.276;2023-09-12T08:20:55;6.27;;;5.20;;
9948;SDS011;5013;51.840;8.276;2023-09-12T08:23:21;20.73;;;6.90;;
9948;SDS011;5013;51.840;8.276;2023-09-12T08:25:47;48.23;;;7.83;;
9948;SDS011;5013;51.840;8.276;2023-09-12T08:28:13;7.27;;;6.57;;
9948;SDS011;5013;51.840;8.276;2023-09-12T08:30:39;12.87;;;7.23;;
9948;SDS011;5013;51.840;8.276;2023-09-12T08:33:04;12.20;;;8.20;;
9948;SDS011;5013;51.840;8.276;2023-09-12T08:35:31;14.07;;;6.93;;
9948;SDS011;5013;51.840;8.276;2023-09-12T08:37:57;8.10;;;7.37;;
9948;SDS011;5013;51.840;8.276;2023-09-12T08:40:23;17.47;;;8.83;;
9948;SDS011;5013;51.840;8.276;2023-09-12T08:42:49;12.17;;;8.40;;
9948;SDS011;5013;51.840;8.276;2023-09-12T08:45:16;8.10;;;6.43;;
9948;SDS011;5013;51.840;8.276;2023-09-12T08:47:44;8.30;;;6.73;;
9948;SDS011;5013;51.840;8.276;2023-09-12T08:50:11;8.83;;;8.00;;
9948;SDS011;5013;51.840;8.276;2023-09-12T08:52:38;8.43;;;7.40;;
9948;SDS011;5013;51.840;8.276;2023-09-12T08:55:05;9.47;;;8.47;;
9948;SDS011;5013;51.840;8.276;2023-09-12T08:57:32;8.53;;;7.60;;
9948;SDS011;5013;51.840;8.276;2023-09-12T09:00:00;8.63;;;7.60;;
9948;SDS011;5013;51.840;8.276;2023-09-12T09:02:42;13.83;;;9.63;;
9948;SDS011;5013;51.840;8.276;2023-09-12T09:05:09;10.07;;;9.07;;
9948;SDS011;5013;51.840;8.276;2023-09-12T09:07:39;13.43;;;8.97;;
9948;SDS011;5013;51.840;8.276;2023-09-12T09:10:07;13.03;;;8.77;;
9948;SDS011;5013;51.840;8.276;2023-09-12T09:12:35;18.13;;;10.83;;
9948;SDS011;5013;51.840;8.276;2023-09-12T09:15:20;14.43;;;9.73;;
9948;SDS011;5013;51.840;8.276;2023-09-12T09:17:47;10.20;;;9.10;;
9948;SDS011;5013;51.840;8.276;2023-09-12T09:20:30;8.97;;;7.93;;
9948;SDS011;5013;51.840;8.276;2023-09-12T09:23:00;10.17;;;8.20;;
9948;SDS011;5013;51.840;8.276;2023-09-12T09:25:34;12.37;;;9.80;;
9948;SDS011;5013;51.840;8.276;2023-09-12T09:28:04;12.83;;;11.20;;
9948;SDS011;5013;51.840;8.276;2023-09-12T09:30:43;13.03;;;9.57;;
9948;SDS011;5013;51.840;8.276;2023-09-12T09:33:13;12.37;;;9.33;;
9948;SDS011;5013;51.840;8.276;2023-09-12T09:35:42;10.10;;;9.07;;
9948;SDS011;5013;51.840;8.276;2023-09-12T09:38:10;9.60;;;8.70;;
9948;SDS011;5013;51.840;8.276;2023-09-12T09:40:41;9.93;;;7.83;;
9948;SDS011;5013;51.840;8.276;2023-09-12T09:43:07;9.17;;;8.30;;
9948;SDS011;5013;51.840;8.276;2023-09-12T09:45:33;10.20;;;9.20;;
9948;SDS011;5013;51.840;8.276;2023-09-12T09:48:09;9.97;;;8.97;;
9948;SDS011;5013;51.840;8.276;2023-09-12T09:50:35;9.30;;;8.40;;
9948;SDS011;5013;51.840;8.276;2023-09-12T09:53:02;10.33;;;8.63;;
9948;SDS011;5013;51.840;8.276;2023-09-12T09:55:29;10.43;;;9.37;;
9948;SDS011;5013;51.840;8.276;2023-09-12T09:57:55;9.80;;;8.90;;
9948;SDS011;5013;51.840;8.276;2023-09-12T10:00:21;30.77;;;13.63;;
9948;SDS011;5013;51.840;8.276;2023-09-12T10:02:48;26.73;;;13.13;;
9948;SDS011;5013;51.840;8.276;2023-09-12T10:05:16;18.70;;;12.00;;
9948;SDS011;5013;51.840;8.276;2023-09-12T10:07:42;11.70;;;10.53;;
9948;SDS011;5013;51.840;8.276;2023-09-12T10:10:16;12.37;;;10.50;;
9948;SDS011;5013;51.840;8.276;2023-09-12T10:12:50;11.37;;;9.77;;
9948;SDS011;5013;51.840;8.276;2023-09-12T10:15:21;12.57;;;11.10;;
9948;SDS011;5013;51.840;8.276;2023-09-12T10:17:54;15.47;;;13.40;;
9948;SDS011;5013;51.840;8.276;2023-09-12T10:20:28;13.07;;;11.77;;
9948;SDS011;5013;51.840;8.276;2023-09-12T10:23:19;13.07;;;10.97;;
9948;SDS011;5013;51.840;8.276;2023-09-12T10:25:52;15.23;;;13.57;;
9948;SDS011;5013;51.840;8.276;2023-09-12T10:28:19;17.40;;;14.57;;
9948;SDS011;5013;51.840;8.276;2023-09-12T10:30:46;11.63;;;10.43;;
9948;SDS011;5013;51.840;8.276;2023-09-12T10:33:13;11.33;;;9.70;;
9948;SDS011;5013;51.840;8.276;2023-09-12T10:35:40;11.13;;;10.07;;
9948;SDS011;5013;51.840;8.276;2023-09-12T10:38:06;9.27;;;8.10;;
9948;SDS011;5013;51.840;8.276;2023-09-12T10:40:35;9.60;;;8.40;;
9948;SDS011;5013;51.840;8.276;2023-09-12T10:43:01;8.67;;;7.87;;
9948;SDS011;5013;51.840;8.276;2023-09-12T10:45:31;9.77;;;8.47;;
9948;SDS011;5013;51.840;8.276;2023-09-12T10:47:58;9.90;;;8.90;;
9948;SDS011;5013;51.840;8.276;2023-09-12T10:50:23;10.50;;;9.50;;
9948;SDS011;5013;51.840;8.276;2023-09-12T10:52:49;10.93;;;9.30;;
9948;SDS011;5013;51.840;8.276;2023-09-12T10:55:16;10.47;;;9.40;;
9948;SDS011;5013;51.840;8.276;2023-09-12T10:57:59;9.60;;;8.73;;
9948;SDS011;5013;51.840;8.276;2023-09-12T11:00:29;7.90;;;7.20;;
9948;SDS011;5013;51.840;8.276;2023-09-12T11:02:57;10.57;;;8.20;;
9948;SDS011;5013;51.840;8.276;2023-09-12T11:07:57;8.53;;;7.50;;
9948;SDS011;5013;51.840;8.276;2023-09-12T11:10:24;7.27;;;6.57;;
9948;SDS011;5013;51.840;8.276;2023-09-12T11:12:54;8.87;;;8.07;;
9948;SDS011;5013;51.840;8.276;2023-09-12T11:15:22;8.23;;;7.03;;
9948;SDS011;5013;51.840;8.276;2023-09-12T11:17:50;7.20;;;6.53;;
9948;SDS011;5013;51.840;8.276;2023-09-12T11:20:24;7.33;;;6.63;;
9948;SDS011;5013;51.840;8.276;2023-09-12T11:22:50;6.43;;;5.93;;
9948;SDS011;5013;51.840;8.276;2023-09-12T11:30:24;7.17;;;5.67;;
9948;SDS011;5013;51.840;8.276;2023-09-12T11:32:50;4.57;;;4.37;;
9948;SDS011;5013;51.840;8.276;2023-09-12T11:35:23;4.27;;;3.90;;
9948;SDS011;5013;51.840;8.276;2023-09-12T11:37:59;4.47;;;4.10;;
9948;SDS011;5013;51.840;8.276;2023-09-12T11:42:57;3.80;;;3.33;;
9948;SDS011;5013;51.840;8.276;2023-09-12T11:45:23;4.33;;;3.83;;
9948;SDS011;5013;51.840;8.276;2023-09-12T11:47:49;5.00;;;4.60;;
9948;SDS011;5013;51.840;8.276;2023-09-12T11:50:30;5.30;;;4.87;;
9948;SDS011;5013;51.840;8.276;2023-09-12T11:53:00;4.40;;;4.00;;
9948;SDS011;5013;51.840;8.276;2023-09-12T11:55:30;6.20;;;5.60;;
9948;SDS011;5013;51.840;8.276;2023-09-12T11:57:57;5.17;;;4.67;;
9948;SDS011;5013;51.840;8.276;2023-09-12T12:00:23;5.03;;;4.60;;
9948;SDS011;5013;51.840;8.276;2023-09-12T12:02:51;5.88;;;5.32;;
9948;SDS011;5013;51.840;8.276;2023-09-12T12:05:17;4.50;;;4.20;;
9948;SDS011;5013;51.840;8.276;2023-09-12T12:07:43;4.45;;;4.25;;
9948;SDS011;5013;51.840;8.276;2023-09-12T12:10:11;3.65;;;3.45;;
9948;SDS011;5013;51.840;8.276;2023-09-12T12:12:37;3.80;;;3.60;;
9948;SDS011;5013;51.840;8.276;2023-09-12T12:15:03;4.53;;;4.22;;
9948;SDS011;5013;51.840;8.276;2023-09-12T12:17:28;5.60;;;5.18;;
9948;SDS011;5013;51.840;8.276;2023-09-12T12:19:54;5.90;;;5.45;;
9948;SDS011;5013;51.840;8.276;2023-09-12T12:22:20;6.30;;;4.40;;
9948;SDS011;5013;51.840;8.276;2023-09-12T12:24:46;4.82;;;3.60;;
9948;SDS011;5013;51.840;8.276;2023-09-12T12:27:15;5.05;;;4.55;;
9948;SDS011;5013;51.840;8.276;2023-09-12T12:29:41;4.60;;;4.30;;
9948;SDS011;5013;51.840;8.276;2023-09-12T12:32:08;4.60;;;4.30;;
9948;SDS011;5013;51.840;8.276;2023-09-12T12:34:35;3.85;;;3.63;;
9948;SDS011;5013;51.840;8.276;2023-09-12T12:37:02;3.75;;;3.55;;
9948;SDS011;5013;51.840;8.276;2023-09-12T12:39:28;4.55;;;4.20;;
9948;SDS011;5013;51.840;8.276;2023-09-12T12:41:54;4.50;;;4.15;;
9948;SDS011;5013;51.840;8.276;2023-09-12T12:44:20;6.15;;;5.47;;
9948;SDS011;5013;51.840;8.276;2023-09-12T12:46:52;5.03;;;4.72;;
9948;SDS011;5013;51.840;8.276;2023-09-12T12:49:19;5.13;;;4.82;;
9948;SDS011;5013;51.840;8.276;2023-09-12T12:51:45;5.15;;;4.82;;
9948;SDS011;5013;51.840;8.276;2023-09-12T12:54:12;6.25;;;5.65;;
9948;SDS011;5013;51.840;8.276;2023-09-12T12:56:38;6.20;;;5.75;;
9948;SDS011;5013;51.840;8.276;2023-09-12T12:59:05;6.75;;;6.25;;
9948;SDS011;5013;51.840;8.276;2023-09-12T13:01:36;6.65;;;6.13;;
9948;SDS011;5013;51.840;8.276;2023-09-12T13:04:09;6.13;;;5.60;;
9948;SDS011;5013;51.840;8.276;2023-09-12T13:06:34;6.95;;;6.00;;
9948;SDS011;5013;51.840;8.276;2023-09-12T13:09:05;5.07;;;4.68;;
9948;SDS011;5013;51.840;8.276;2023-09-12T13:11:31;6.80;;;5.20;;
9948;SDS011;5013;51.840;8.276;2023-09-12T13:14:00;5.05;;;4.80;;
9948;SDS011;5013;51.840;8.276;2023-09-12T13:16:26;6.55;;;5.30;;
9948;SDS011;5013;51.840;8.276;2023-09-12T13:18:54;4.88;;;4.60;;
9948;SDS011;5013;51.840;8.276;2023-09-12T13:21:19;5.82;;;5.28;;
9948;SDS011;5013;51.840;8.276;2023-09-12T13:23:45;5.88;;;5.43;;
9948;SDS011;5013;51.840;8.276;2023-09-12T13:26:10;5.70;;;5.28;;
9948;SDS011;5013;51.840;8.276;2023-09-12T13:28:36;4.55;;;4.35;;
9948;SDS011;5013;51.840;8.276;2023-09-12T13:31:02;8.38;;;4.53;;
9948;SDS011;5013;51.840;8.276;2023-09-12T13:33:28;5.80;;;4.82;;
9948;SDS011;5013;51.840;8.276;2023-09-12T13:35:54;5.47;;;4.95;;
9948;SDS011;5013;51.840;8.276;2023-09-12T13:38:19;5.93;;;5.53;;
9948;SDS011;5013;51.840;8.276;2023-09-12T13:40:46;4.90;;;4.53;;
9948;SDS011;5013;51.840;8.276;2023-09-12T13:43:12;5.40;;;4.90;;
9948;SDS011;5013;51.840;8.276;2023-09-12T13:45:38;5.45;;;5.15;;
9948;SDS011;5013;51.840;8.276;2023-09-12T13:48:03;5.72;;;5.10;;
9948;SDS011;5013;51.840;8.276;2023-09-12T13:50:30;4.60;;;4.30;;
9948;SDS011;5013;51.840;8.276;2023-09-12T13:52:57;4.68;;;4.47;;
9948;SDS011;5013;51.840;8.276;2023-09-12T13:55:36;4.40;;;4.10;;
9948;SDS011;5013;51.840;8.276;2023-09-12T13:58:02;4.13;;;3.88;;
9948;SDS011;5013;51.840;8.276;2023-09-12T14:00:29;3.90;;;3.70;;
9948;SDS011;5013;51.840;8.276;2023-09-12T14:02:55;5.38;;;4.97;;
9948;SDS011;5013;51.840;8.276;2023-09-12T14:05:21;5.15;;;4.75;;
9948;SDS011;5013;51.840;8.276;2023-09-12T14:07:47;4.40;;;4.20;;
9948;SDS011;5013;51.840;8.276;2023-09-12T14:10:12;4.35;;;4.00;;
9948;SDS011;5013;51.840;8.276;2023-09-12T14:12:38;5.53;;;5.10;;
9948;SDS011;5013;51.840;8.276;2023-09-12T14:15:04;6.15;;;5.00;;
9948;SDS011;5013;51.840;8.276;2023-09-12T14:17:32;5.60;;;5.20;;
9948;SDS011;5013;51.840;8.276;2023-09-12T14:19:58;5.03;;;4.72;;
9948;SDS011;5013;51.840;8.276;2023-09-12T14:22:23;4.40;;;4.05;;
9948;SDS011;5013;51.840;8.276;2023-09-12T14:24:49;5.20;;;4.93;;
9948;SDS011;5013;51.840;8.276;2023-09-12T14:27:15;5.57;;;5.18;;
9948;SDS011;5013;51.840;8.276;2023-09-12T14:29:40;5.03;;;4.70;;
9948;SDS011;5013;51.840;8.276;2023-09-12T14:32:10;5.63;;;4.43;;
9948;SDS011;5013;51.840;8.276;2023-09-12T14:34:36;5.03;;;4.72;;
9948;SDS011;5013;51.840;8.276;2023-09-12T14:37:01;4.80;;;4.47;;
9948;SDS011;5013;51.840;8.276;2023-09-12T14:39:27;5.55;;;5.03;;
9948;SDS011;5013;51.840;8.276;2023-09-12T14:41:52;6.63;;;5.13;;
9948;SDS011;5013;51.840;8.276;2023-09-12T14:44:19;5.18;;;4.68;;
9948;SDS011;5013;51.840;8.276;2023-09-12T14:46:45;5.18;;;4.88;;
9948;SDS011;5013;51.840;8.276;2023-09-12T14:49:10;5.30;;;4.82;;
9948;SDS011;5013;51.840;8.276;2023-09-12T14:51:36;4.95;;;4.60;;
9948;SDS011;5013;51.840;8.276;2023-09-12T14:54:05;6.93;;;4.90;;
9948;SDS011;5013;51.840;8.276;2023-09-12T14:56:31;6.47;;;4.82;;
9948;SDS011;5013;51.840;8.276;2023-09-12T14:58:59;4.95;;;4.57;;
9948;SDS011;5013;51.840;8.276;2023-09-12T15:01:25;5.25;;;4.85;;
9948;SDS011;5013;51.840;8.276;2023-09-12T15:03:51;4.60;;;4.30;;
9948;SDS011;5013;51.840;8.276;2023-09-12T15:06:17;4.63;;;4.35;;
9948;SDS011;5013;51.840;8.276;2023-09-12T15:08:43;5.43;;;4.13;;
9948;SDS011;5013;51.840;8.276;2023-09-12T15:11:08;5.13;;;4.63;;
9948;SDS011;5013;51.840;8.276;2023-09-12T15:13:34;4.60;;;4.13;;
9948;SDS011;5013;51.840;8.276;2023-09-12T15:16:00;4.35;;;4.00;;
9948;SDS011;5013;51.840;8.276;2023-09-12T15:18:26;5.00;;;4.68;;